Time;durP1;ratioP1;P1;durP2;ratioP2;P2;SDS_P1;SDS_P2;PMS_P1;PMS_P2;Temp;Humidity;BMP_temperature;BMP_pressure;BME280_temperature;BME280_humidity;BME280_pressure;Samples;Min_cycle;Max_cycle;Signal;HPM_P1;HPM_P2
2021/08/08 00:01:02;;;;;;;3.92;2.20;;;;;;;;;;5098149;27;20412;-69
2021/08/08 00:03:28;;;;;;;6.53;2.90;;;;;;;;;;5094590;28;20024;-66
2021/08/08 00:05:55;;;;;;;3.65;2.50;;;;;;;;;;5094011;28;20020;-68
2021/08/08 00:08:21;;;;;;;3.80;2.10;;;;;;;;;;5094211;28;20102;-68
2021/08/08 00:10:47;;;;;;;2.67;1.90;;;;;;;;;;5094713;28;20032;-69
2021/08/08 00:13:14;;;;;;;2.75;2.10;;;;;;;;;;5094688;28;20024;-69
2021/08/08 00:15:41;;;;;;;2.15;2.00;;;;;;;;;;5099351;28;20368;-69
2021/08/08 00:18:08;;;;;;;4.70;2.30;;;;;;;;;;5103742;28;20039;-68
2021/08/08 00:20:34;;;;;;;3.28;2.25;;;;;;;;;;5095330;28;20028;-69
2021/08/08 00:23:00;;;;;;;2.03;1.83;;;;;;;;;;5095281;28;20020;-69
2021/08/08 00:25:27;;;;;;;3.97;2.10;;;;;;;;;;5098142;28;20385;-67
2021/08/08 00:27:53;;;;;;;4.60;2.10;;;;;;;;;;5098371;28;20028;-67
2021/08/08 00:30:19;;;;;;;3.40;2.33;;;;;;;;;;5105590;28;20055;-67
2021/08/08 00:32:45;;;;;;;2.78;2.35;;;;;;;;;;5092430;28;20034;-69
2021/08/08 00:35:11;;;;;;;5.57;2.22;;;;;;;;;;5092566;28;20028;-66
2021/08/08 00:37:44;;;;;;;4.95;2.20;;;;;;;;;;5092770;28;20028;-68
2021/08/08 00:40:11;;;;;;;3.90;2.00;;;;;;;;;;5094213;28;20039;-68
2021/08/08 00:42:37;;;;;;;2.60;2.00;;;;;;;;;;5092503;28;20028;-69
2021/08/08 00:45:03;;;;;;;3.20;2.20;;;;;;;;;;5091525;28;20016;-69
2021/08/08 00:47:29;;;;;;;3.35;1.95;;;;;;;;;;5094821;28;20051;-68
2021/08/08 00:49:55;;;;;;;2.72;2.10;;;;;;;;;;5092608;28;20028;-67
2021/08/08 00:52:21;;;;;;;3.35;2.15;;;;;;;;;;5093956;28;20107;-66
2021/08/08 00:54:47;;;;;;;3.55;2.00;;;;;;;;;;5094658;28;20461;-67
2021/08/08 00:57:13;;;;;;;3.72;1.90;;;;;;;;;;5092810;28;20477;-69
2021/08/08 00:59:40;;;;;;;2.80;2.20;;;;;;;;;;5094203;28;20042;-69
2021/08/08 01:02:06;;;;;;;2.70;2.10;;;;;;;;;;5093739;28;20074;-68
2021/08/08 01:04:42;;;;;;;2.70;2.05;;;;;;;;;;5093493;28;20024;-69
2021/08/08 01:07:10;;;;;;;3.28;2.22;;;;;;;;;;5089846;28;20036;-66
2021/08/08 01:09:38;;;;;;;2.78;2.00;;;;;;;;;;5097362;28;20028;-66
2021/08/08 01:12:05;;;;;;;4.90;2.40;;;;;;;;;;5093307;28;20032;-67
2021/08/08 01:14:33;;;;;;;3.10;1.90;;;;;;;;;;5093401;28;20024;-66
2021/08/08 01:17:04;;;;;;;2.40;2.08;;;;;;;;;;5092470;28;20024;-69
2021/08/08 01:19:32;;;;;;;4.18;2.42;;;;;;;;;;5088234;28;20031;-68
2021/08/08 01:21:58;;;;;;;3.33;2.00;;;;;;;;;;5092821;28;20028;-66
2021/08/08 01:24:24;;;;;;;3.20;2.00;;;;;;;;;;5096887;28;20106;-69
2021/08/08 01:26:51;;;;;;;4.63;2.20;;;;;;;;;;5095154;28;20056;-67
2021/08/08 01:29:17;;;;;;;3.30;2.33;;;;;;;;;;5101521;28;20587;-68
2021/08/08 01:31:50;;;;;;;5.30;2.45;;;;;;;;;;5092826;28;20064;-66
2021/08/08 01:34:16;;;;;;;6.22;2.20;;;;;;;;;;5085555;28;20016;-67
2021/08/08 01:36:42;;;;;;;3.78;2.03;;;;;;;;;;5094290;28;20028;-68
2021/08/08 01:39:11;;;;;;;4.60;2.40;;;;;;;;;;5092213;28;20024;-69
2021/08/08 01:41:42;;;;;;;5.35;2.30;;;;;;;;;;5090840;28;20518;-67
2021/08/08 01:44:08;;;;;;;9.55;2.60;;;;;;;;;;5100348;28;20060;-66
2021/08/08 01:46:34;;;;;;;5.32;2.60;;;;;;;;;;5085074;28;20048;-68
2021/08/08 01:49:11;;;;;;;3.65;2.20;;;;;;;;;;5096195;28;20028;-69
2021/08/08 01:51:40;;;;;;;7.18;2.45;;;;;;;;;;5096854;28;20031;-68
2021/08/08 01:54:06;;;;;;;2.25;2.00;;;;;;;;;;5095219;28;20036;-66
2021/08/08 01:56:33;;;;;;;3.28;2.33;;;;;;;;;;5091525;28;20024;-67
2021/08/08 01:59:00;;;;;;;4.85;2.10;;;;;;;;;;5093167;28;20089;-67
2021/08/08 02:01:29;;;;;;;2.83;2.10;;;;;;;;;;5093124;28;20445;-67
2021/08/08 02:03:55;;;;;;;3.78;2.50;;;;;;;;;;5091831;28;20028;-67
2021/08/08 02:06:21;;;;;;;4.28;2.25;;;;;;;;;;5099073;28;20439;-69
2021/08/08 02:08:47;;;;;;;2.60;2.30;;;;;;;;;;5092220;28;20021;-69
2021/08/08 02:11:13;;;;;;;4.32;2.17;;;;;;;;;;5093557;28;20058;-65
2021/08/08 02:13:39;;;;;;;2.58;2.10;;;;;;;;;;5091931;28;20028;-67
2021/08/08 02:16:05;;;;;;;4.05;2.45;;;;;;;;;;5092203;28;20111;-69
2021/08/08 02:18:31;;;;;;;5.90;2.60;;;;;;;;;;5090772;28;20043;-65
2021/08/08 02:20:57;;;;;;;5.68;2.20;;;;;;;;;;5091771;28;20031;-69
2021/08/08 02:23:23;;;;;;;5.63;2.40;;;;;;;;;;5091834;28;20070;-67
2021/08/08 02:25:52;;;;;;;5.03;2.40;;;;;;;;;;5093017;28;20346;-69
2021/08/08 02:28:19;;;;;;;3.67;2.30;;;;;;;;;;5092341;28;20023;-68
2021/08/08 02:30:45;;;;;;;4.72;2.28;;;;;;;;;;5091309;28;20019;-68
2021/08/08 02:33:11;;;;;;;3.92;2.40;;;;;;;;;;5089631;28;20055;-67
2021/08/08 02:35:37;;;;;;;6.22;2.60;;;;;;;;;;5091264;28;20149;-69
2021/08/08 02:38:03;;;;;;;6.07;2.78;;;;;;;;;;5091810;28;20039;-68
2021/08/08 02:40:29;;;;;;;4.07;2.60;;;;;;;;;;5092928;28;20024;-69
2021/08/08 02:42:55;;;;;;;6.00;2.38;;;;;;;;;;5088126;28;20150;-68
2021/08/08 02:45:21;;;;;;;3.75;2.65;;;;;;;;;;5086616;28;20073;-69
2021/08/08 02:47:47;;;;;;;4.43;2.40;;;;;;;;;;5093814;28;20044;-67
2021/08/08 02:50:13;;;;;;;4.15;2.70;;;;;;;;;;5092890;28;20028;-69
2021/08/08 02:52:41;;;;;;;9.18;2.90;;;;;;;;;;5092195;28;20067;-69
2021/08/08 02:55:09;;;;;;;3.28;2.40;;;;;;;;;;5108286;28;20036;-69
2021/08/08 02:57:35;;;;;;;4.60;2.67;;;;;;;;;;5094370;28;20250;-66
2021/08/08 03:00:01;;;;;;;4.05;2.72;;;;;;;;;;5097081;28;20465;-69
2021/08/08 03:02:27;;;;;;;4.38;2.78;;;;;;;;;;5095735;28;20027;-68
2021/08/08 03:04:53;;;;;;;4.55;2.75;;;;;;;;;;5108845;28;20015;-68
2021/08/08 03:07:19;;;;;;;3.90;2.70;;;;;;;;;;5096777;28;20024;-68
2021/08/08 03:09:45;;;;;;;3.38;2.50;;;;;;;;;;5100730;28;20031;-65
2021/08/08 03:12:11;;;;;;;4.55;2.60;;;;;;;;;;5096422;28;20036;-68
2021/08/08 03:14:37;;;;;;;5.97;2.67;;;;;;;;;;5096561;28;20020;-68
2021/08/08 03:17:03;;;;;;;5.85;2.80;;;;;;;;;;5093140;28;20044;-67
2021/08/08 03:19:29;;;;;;;6.47;2.60;;;;;;;;;;5092908;28;20047;-67
2021/08/08 03:21:55;;;;;;;6.43;2.92;;;;;;;;;;5095583;28;20051;-68
2021/08/08 03:24:21;;;;;;;5.22;2.85;;;;;;;;;;5094604;28;20028;-67
2021/08/08 03:26:47;;;;;;;6.97;3.40;;;;;;;;;;5106422;28;20053;-69
2021/08/08 03:29:13;;;;;;;4.45;2.60;;;;;;;;;;5095747;28;20033;-67
2021/08/08 03:31:41;;;;;;;4.82;2.50;;;;;;;;;;5095537;28;20038;-68
2021/08/08 03:34:07;;;;;;;4.68;2.50;;;;;;;;;;5095689;28;20035;-66
2021/08/08 03:36:34;;;;;;;3.67;2.88;;;;;;;;;;5094676;28;20032;-68
2021/08/08 03:39:01;;;;;;;4.07;2.55;;;;;;;;;;5098974;28;20051;-66
2021/08/08 03:41:27;;;;;;;7.70;2.90;;;;;;;;;;5089431;28;20046;-67
2021/08/08 03:43:53;;;;;;;5.18;2.85;;;;;;;;;;5095646;28;20383;-69
2021/08/08 03:46:19;;;;;;;3.38;2.33;;;;;;;;;;5083723;28;20053;-68
2021/08/08 03:48:45;;;;;;;4.07;2.53;;;;;;;;;;5095891;28;20028;-67
2021/08/08 03:51:11;;;;;;;4.03;2.80;;;;;;;;;;5093403;28;20024;-65
2021/08/08 03:53:38;;;;;;;5.78;2.83;;;;;;;;;;5095057;28;20028;-65
2021/08/08 03:56:04;;;;;;;4.80;2.70;;;;;;;;;;5095735;28;20028;-67
2021/08/08 03:58:30;;;;;;;5.78;2.90;;;;;;;;;;5094945;28;20036;-68
2021/08/08 04:01:00;;;;;;;8.02;3.10;;;;;;;;;;5095462;28;20030;-68
2021/08/08 04:03:26;;;;;;;8.98;3.30;;;;;;;;;;5094880;28;20388;-68
2021/08/08 04:05:52;;;;;;;5.47;3.10;;;;;;;;;;5094101;28;20091;-68
2021/08/08 04:08:19;;;;;;;4.10;2.90;;;;;;;;;;5093990;28;20032;-67
2021/08/08 04:10:45;;;;;;;4.32;3.20;;;;;;;;;;5095713;28;20032;-67
2021/08/08 04:13:11;;;;;;;4.00;2.80;;;;;;;;;;5094500;28;20058;-65
2021/08/08 04:15:37;;;;;;;4.30;3.20;;;;;;;;;;5094277;28;20122;-65
2021/08/08 04:18:03;;;;;;;5.35;3.30;;;;;;;;;;5095626;28;20040;-68
2021/08/08 04:20:29;;;;;;;4.60;3.00;;;;;;;;;;5106131;28;20023;-66
2021/08/08 04:22:55;;;;;;;4.40;3.08;;;;;;;;;;5094781;28;20104;-68
2021/08/08 04:25:21;;;;;;;5.25;3.10;;;;;;;;;;5100629;28;20028;-68
2021/08/08 04:27:47;;;;;;;4.32;3.10;;;;;;;;;;5093842;28;20157;-69
2021/08/08 04:30:13;;;;;;;8.10;3.40;;;;;;;;;;5094331;28;20028;-68
2021/08/08 04:32:39;;;;;;;7.47;3.22;;;;;;;;;;5094787;28;20020;-68
2021/08/08 04:35:06;;;;;;;6.38;3.60;;;;;;;;;;5094106;28;20032;-67
2021/08/08 04:37:32;;;;;;;5.25;3.45;;;;;;;;;;5093824;28;20047;-66
2021/08/08 04:39:58;;;;;;;4.97;3.50;;;;;;;;;;5102166;28;20024;-68
2021/08/08 04:42:24;;;;;;;7.10;3.53;;;;;;;;;;5098938;28;20032;-69
2021/08/08 04:44:50;;;;;;;8.00;3.80;;;;;;;;;;5089499;28;20035;-65
2021/08/08 04:47:17;;;;;;;6.28;3.30;;;;;;;;;;5100319;28;20056;-67
2021/08/08 04:49:43;;;;;;;4.85;3.45;;;;;;;;;;5106882;28;20070;-69
2021/08/08 04:52:09;;;;;;;8.70;3.47;;;;;;;;;;5104266;28;20024;-68
2021/08/08 04:54:35;;;;;;;5.47;3.50;;;;;;;;;;5096917;28;20024;-69
2021/08/08 04:57:01;;;;;;;7.03;3.55;;;;;;;;;;5105544;28;20032;-68
2021/08/08 04:59:27;;;;;;;22.35;5.20;;;;;;;;;;5093259;28;20028;-65
2021/08/08 05:01:53;;;;;;;13.48;4.25;;;;;;;;;;5093015;28;20031;-66
2021/08/08 05:04:19;;;;;;;22.73;5.47;;;;;;;;;;5094786;28;20024;-67
2021/08/08 05:06:45;;;;;;;6.38;4.00;;;;;;;;;;5093330;28;20058;-68
2021/08/08 05:09:12;;;;;;;14.18;5.60;;;;;;;;;;5089780;28;20045;-66
2021/08/08 05:11:38;;;;;;;16.17;5.10;;;;;;;;;;5090300;28;20032;-73
2021/08/08 05:14:11;;;;;;;10.45;4.35;;;;;;;;;;5087193;28;20091;-76
2021/08/08 05:16:37;;;;;;;13.30;4.28;;;;;;;;;;5076869;28;20378;-68
2021/08/08 05:19:03;;;;;;;10.95;4.25;;;;;;;;;;5088595;28;20028;-73
2021/08/08 05:21:29;;;;;;;7.03;3.72;;;;;;;;;;5093427;28;20028;-70
2021/08/08 05:23:56;;;;;;;12.27;4.90;;;;;;;;;;5091544;28;20036;-67
2021/08/08 05:26:22;;;;;;;12.63;4.90;;;;;;;;;;5086256;28;20020;-73
2021/08/08 05:28:48;;;;;;;15.88;4.50;;;;;;;;;;5088691;28;20077;-72
2021/08/08 05:31:14;;;;;;;8.15;4.00;;;;;;;;;;5091657;28;20047;-67
2021/08/08 05:33:40;;;;;;;8.27;4.03;;;;;;;;;;5086623;28;20027;-67
2021/08/08 05:36:06;;;;;;;7.13;3.72;;;;;;;;;;5092513;28;20032;-68
2021/08/08 05:38:32;;;;;;;10.70;3.78;;;;;;;;;;5084967;28;20058;-67
2021/08/08 05:40:58;;;;;;;8.65;3.63;;;;;;;;;;5093057;28;20029;-67
2021/08/08 05:43:24;;;;;;;10.63;4.45;;;;;;;;;;5088058;28;20042;-66
2021/08/08 05:45:51;;;;;;;15.85;3.95;;;;;;;;;;5081755;28;20030;-70
2021/08/08 05:48:17;;;;;;;10.43;4.20;;;;;;;;;;5091137;28;20040;-67
2021/08/08 05:50:43;;;;;;;11.88;4.30;;;;;;;;;;5088136;28;20485;-69
2021/08/08 05:53:09;;;;;;;19.08;4.63;;;;;;;;;;5084657;28;20478;-74
2021/08/08 05:55:36;;;;;;;16.10;4.45;;;;;;;;;;5088764;28;20489;-70
2021/08/08 05:58:03;;;;;;;26.05;4.32;;;;;;;;;;5085032;28;20063;-69
2021/08/08 06:00:29;;;;;;;13.13;4.15;;;;;;;;;;5084300;28;20051;-67
2021/08/08 06:02:55;;;;;;;8.57;3.80;;;;;;;;;;5089377;28;20031;-69
2021/08/08 06:05:21;;;;;;;10.65;3.80;;;;;;;;;;5091177;28;20028;-69
2021/08/08 06:07:47;;;;;;;11.18;3.90;;;;;;;;;;5090765;28;20024;-69
2021/08/08 06:10:13;;;;;;;8.43;3.60;;;;;;;;;;5088112;28;20024;-71
2021/08/08 06:12:39;;;;;;;9.65;3.90;;;;;;;;;;5085633;28;20039;-81
2021/08/08 06:15:05;;;;;;;11.45;3.80;;;;;;;;;;5082451;28;20544;-75
2021/08/08 06:17:31;;;;;;;5.97;3.50;;;;;;;;;;5085675;28;20048;-70
2021/08/08 06:19:57;;;;;;;9.30;3.78;;;;;;;;;;5085853;28;20495;-69
2021/08/08 06:22:24;;;;;;;5.30;3.38;;;;;;;;;;5089706;28;20448;-68
2021/08/08 06:24:50;;;;;;;7.15;3.63;;;;;;;;;;5085940;28;20012;-69
2021/08/08 06:27:16;;;;;;;7.53;3.53;;;;;;;;;;5090797;28;20138;-69
2021/08/08 06:29:42;;;;;;;14.63;4.07;;;;;;;;;;5089638;28;20063;-69
2021/08/08 06:32:08;;;;;;;10.05;3.75;;;;;;;;;;5089538;28;20032;-68
2021/08/08 06:34:34;;;;;;;15.50;5.60;;;;;;;;;;5086850;28;20085;-69
2021/08/08 06:37:00;;;;;;;8.85;3.70;;;;;;;;;;5095462;28;20443;-68
2021/08/08 06:39:26;;;;;;;8.00;3.97;;;;;;;;;;5086027;28;20115;-68
2021/08/08 06:41:52;;;;;;;6.63;3.78;;;;;;;;;;5091280;28;20032;-68
2021/08/08 06:44:18;;;;;;;8.07;3.70;;;;;;;;;;5087007;28;20035;-68
2021/08/08 06:46:44;;;;;;;9.10;3.50;;;;;;;;;;5076500;28;20043;-70
2021/08/08 06:49:12;;;;;;;9.55;3.78;;;;;;;;;;5088740;28;20050;-74
2021/08/08 06:51:38;;;;;;;6.43;3.50;;;;;;;;;;5085954;28;20025;-75
2021/08/08 06:54:04;;;;;;;5.15;3.67;;;;;;;;;;5081762;28;20119;-70
2021/08/08 06:56:32;;;;;;;8.18;4.35;;;;;;;;;;5081965;28;20379;-70
2021/08/08 06:58:58;;;;;;;6.25;4.47;;;;;;;;;;5085860;28;20040;-70
2021/08/08 07:01:24;;;;;;;12.02;4.25;;;;;;;;;;5083865;28;20029;-71
2021/08/08 07:03:50;;;;;;;6.82;3.83;;;;;;;;;;5086749;28;20024;-80
2021/08/08 07:06:16;;;;;;;13.98;4.45;;;;;;;;;;5083380;28;20481;-77
2021/08/08 07:08:44;;;;;;;7.97;4.00;;;;;;;;;;5088172;28;20469;-70
2021/08/08 07:11:11;;;;;;;6.65;4.13;;;;;;;;;;5089246;28;20041;-75
2021/08/08 07:13:40;;;;;;;7.97;4.00;;;;;;;;;;5087338;28;20039;-79
2021/08/08 07:16:07;;;;;;;5.95;3.53;;;;;;;;;;5089680;28;20017;-76
2021/08/08 07:18:33;;;;;;;5.13;3.58;;;;;;;;;;5083688;28;20040;-66
2021/08/08 07:20:59;;;;;;;5.15;3.53;;;;;;;;;;5086934;28;20026;-75
2021/08/08 07:23:25;;;;;;;5.45;3.47;;;;;;;;;;5081458;28;20032;-67
2021/08/08 07:25:51;;;;;;;6.93;3.53;;;;;;;;;;5083874;28;20024;-72
2021/08/08 07:28:17;;;;;;;9.25;3.63;;;;;;;;;;5080310;28;20066;-67
2021/08/08 07:30:43;;;;;;;7.65;3.72;;;;;;;;;;5083931;28;20020;-73
2021/08/08 07:33:11;;;;;;;18.23;10.27;;;;;;;;;;5083396;28;20424;-69
2021/08/08 07:35:40;;;;;;;7.32;5.13;;;;;;;;;;5080820;28;20049;-70
2021/08/08 07:38:06;;;;;;;7.40;4.15;;;;;;;;;;5085234;28;20505;-70
2021/08/08 07:40:33;;;;;;;7.97;3.58;;;;;;;;;;5088736;28;20473;-70
2021/08/08 07:42:59;;;;;;;9.98;3.90;;;;;;;;;;5085119;28;20055;-69
2021/08/08 07:45:25;;;;;;;10.05;3.80;;;;;;;;;;5087033;28;20284;-68
2021/08/08 07:47:53;;;;;;;9.40;3.80;;;;;;;;;;5085730;28;20048;-67
2021/08/08 07:50:21;;;;;;;7.03;3.30;;;;;;;;;;5088568;28;20028;-70
2021/08/08 07:52:47;;;;;;;8.25;3.17;;;;;;;;;;5086451;28;20016;-71
2021/08/08 07:55:14;;;;;;;7.40;3.88;;;;;;;;;;5085605;28;20024;-74
2021/08/08 07:57:46;;;;;;;5.95;3.35;;;;;;;;;;5093211;28;20036;-71
2021/08/08 08:00:12;;;;;;;8.98;3.40;;;;;;;;;;5086494;28;20020;-71
2021/08/08 08:02:38;;;;;;;5.60;3.25;;;;;;;;;;5093947;28;20034;-70
2021/08/08 08:05:05;;;;;;;6.45;3.22;;;;;;;;;;5084761;28;20052;-70
2021/08/08 08:07:31;;;;;;;8.45;3.40;;;;;;;;;;5084678;28;20024;-72
2021/08/08 08:09:57;;;;;;;5.22;3.45;;;;;;;;;;5091050;28;20028;-69
2021/08/08 08:12:23;;;;;;;5.05;3.35;;;;;;;;;;5086111;28;20024;-69
2021/08/08 08:14:52;;;;;;;7.80;3.78;;;;;;;;;;5091956;28;20023;-70
2021/08/08 08:17:18;;;;;;;5.97;2.97;;;;;;;;;;5090044;28;20028;-71
2021/08/08 08:19:45;;;;;;;7.85;3.50;;;;;;;;;;5093406;28;20032;-70
2021/08/08 08:22:15;;;;;;;6.35;3.30;;;;;;;;;;5090476;28;20020;-72
2021/08/08 08:24:42;;;;;;;5.68;3.63;;;;;;;;;;5092335;28;20032;-70
2021/08/08 08:27:08;;;;;;;6.90;3.40;;;;;;;;;;5090921;28;20400;-69
2021/08/08 08:29:34;;;;;;;5.55;3.40;;;;;;;;;;5091162;28;20024;-71
2021/08/08 08:32:00;;;;;;;6.03;3.28;;;;;;;;;;5092742;28;20056;-71
2021/08/08 08:34:26;;;;;;;4.95;3.30;;;;;;;;;;5085309;28;20024;-70
2021/08/08 08:36:52;;;;;;;6.55;3.60;;;;;;;;;;5080968;28;20397;-70
2021/08/08 08:39:18;;;;;;;6.35;3.38;;;;;;;;;;5084352;28;20036;-79
2021/08/08 08:41:44;;;;;;;5.03;3.30;;;;;;;;;;5086996;28;20029;-78
2021/08/08 08:44:11;;;;;;;6.05;3.72;;;;;;;;;;5087117;28;20047;-79
2021/08/08 08:46:37;;;;;;;8.23;3.30;;;;;;;;;;5085345;28;20087;-79
2021/08/08 08:49:03;;;;;;;6.60;3.40;;;;;;;;;;5084201;28;20400;-66
2021/08/08 08:51:39;;;;;;;7.10;3.50;;;;;;;;;;5089138;28;20019;-70
2021/08/08 08:54:05;;;;;;;6.57;3.40;;;;;;;;;;5087984;28;20025;-68
2021/08/08 08:56:32;;;;;;;7.20;3.30;;;;;;;;;;5091233;28;20367;-69
2021/08/08 08:58:59;;;;;;;14.40;12.50;;;;;;;;;;5079951;28;20028;-70
2021/08/08 09:01:25;;;;;;;5.50;3.50;;;;;;;;;;5087133;28;20035;-69
2021/08/08 09:03:51;;;;;;;13.18;8.55;;;;;;;;;;5087612;28;20035;-69
2021/08/08 09:06:17;;;;;;;8.63;5.75;;;;;;;;;;5089719;28;20545;-69
2021/08/08 09:08:45;;;;;;;13.02;8.73;;;;;;;;;;5088464;28;20107;-69
2021/08/08 09:11:12;;;;;;;162.13;135.38;;;;;;;;;;5090925;28;20020;-69
2021/08/08 09:13:50;;;;;;;14.98;4.75;;;;;;;;;;5087074;28;20020;-68
2021/08/08 09:16:21;;;;;;;9.40;3.72;;;;;;;;;;5087324;28;20024;-72
2021/08/08 09:18:57;;;;;;;5.57;3.42;;;;;;;;;;5083420;28;20058;-70
2021/08/08 09:21:23;;;;;;;6.57;3.10;;;;;;;;;;5087956;28;20089;-67
2021/08/08 09:23:52;;;;;;;255.05;229.38;;;;;;;;;;5083046;28;20060;-66
2021/08/08 09:26:26;;;;;;;260.00;231.80;;;;;;;;;;5081900;28;20119;-68
2021/08/08 09:29:02;;;;;;;68.97;56.58;;;;;;;;;;5086832;28;20388;-70
2021/08/08 09:31:28;;;;;;;8.27;3.83;;;;;;;;;;5080198;28;20021;-69
2021/08/08 09:33:54;;;;;;;13.93;4.45;;;;;;;;;;5083567;28;20031;-70
2021/08/08 09:36:20;;;;;;;7.45;3.70;;;;;;;;;;5090624;28;20088;-72
2021/08/08 09:38:47;;;;;;;7.63;3.67;;;;;;;;;;5080646;28;20454;-69
2021/08/08 09:41:23;;;;;;;12.63;8.05;;;;;;;;;;5080036;28;20028;-68
2021/08/08 09:43:49;;;;;;;6.53;3.50;;;;;;;;;;5085377;28;20024;-69
2021/08/08 09:46:18;;;;;;;6.20;3.38;;;;;;;;;;5082642;28;20028;-69
2021/08/08 09:48:44;;;;;;;15.38;6.97;;;;;;;;;;5083806;28;20028;-69
2021/08/08 09:51:13;;;;;;;5.88;3.40;;;;;;;;;;5088116;28;20081;-73
2021/08/08 09:53:39;;;;;;;12.98;9.48;;;;;;;;;;5086069;28;20024;-84
2021/08/08 09:56:16;;;;;;;5.55;3.50;;;;;;;;;;5085380;28;20025;-77
2021/08/08 09:58:43;;;;;;;7.07;3.60;;;;;;;;;;5085732;28;20497;-75
2021/08/08 10:01:09;;;;;;;49.08;34.42;;;;;;;;;;5085483;28;20534;-80
2021/08/08 10:03:35;;;;;;;60.42;44.05;;;;;;;;;;5082919;28;20024;-71
2021/08/08 10:06:03;;;;;;;28.60;5.20;;;;;;;;;;5087238;28;20085;-69
2021/08/08 10:08:30;;;;;;;7.65;3.75;;;;;;;;;;5091507;28;20031;-69
2021/08/08 10:10:57;;;;;;;7.53;4.70;;;;;;;;;;5082852;28;20027;-69
2021/08/08 10:13:37;;;;;;;11.48;6.43;;;;;;;;;;5083369;28;20088;-70
2021/08/08 10:16:10;;;;;;;8.55;5.55;;;;;;;;;;5083698;28;20024;-69
2021/08/08 10:18:40;;;;;;;21.27;7.82;;;;;;;;;;5088890;28;20118;-68
2021/08/08 10:21:07;;;;;;;10.13;4.00;;;;;;;;;;5088394;28;20370;-69
2021/08/08 10:23:34;;;;;;;6.15;3.95;;;;;;;;;;5087500;28;20028;-69
2021/08/08 10:26:00;;;;;;;5.10;3.85;;;;;;;;;;5085204;28;20021;-81
2021/08/08 10:28:29;;;;;;;6.38;4.40;;;;;;;;;;5082325;28;20161;-72
2021/08/08 10:30:58;;;;;;;7.32;4.20;;;;;;;;;;5088103;28;20047;-69
2021/08/08 10:33:24;;;;;;;6.35;3.90;;;;;;;;;;5088698;28;20043;-69
2021/08/08 10:35:51;;;;;;;9.05;4.38;;;;;;;;;;5087652;28;20058;-69
2021/08/08 10:38:17;;;;;;;6.70;4.20;;;;;;;;;;5086922;28;20047;-68
2021/08/08 10:40:44;;;;;;;19.15;4.88;;;;;;;;;;5088174;28;20062;-69
2021/08/08 10:43:22;;;;;;;7.80;4.15;;;;;;;;;;5086816;28;20051;-71
2021/08/08 10:45:48;;;;;;;13.25;4.00;;;;;;;;;;5089342;28;20055;-70
2021/08/08 10:48:14;;;;;;;8.10;4.00;;;;;;;;;;5087201;28;20117;-69
2021/08/08 10:50:45;;;;;;;5.85;4.10;;;;;;;;;;5087916;28;20067;-68
2021/08/08 10:53:24;;;;;;;8.77;4.28;;;;;;;;;;5086962;28;20040;-68
2021/08/08 10:55:51;;;;;;;9.82;4.18;;;;;;;;;;5087783;28;20367;-68
2021/08/08 10:58:17;;;;;;;9.00;4.00;;;;;;;;;;5087851;28;20048;-68
2021/08/08 11:00:44;;;;;;;9.65;3.60;;;;;;;;;;5084968;28;20065;-69
2021/08/08 11:03:14;;;;;;;4.95;3.53;;;;;;;;;;5089863;28;20035;-71
2021/08/08 11:05:43;;;;;;;6.00;4.03;;;;;;;;;;5086493;28;20028;-72
2021/08/08 11:08:09;;;;;;;7.55;3.67;;;;;;;;;;5086274;28;20122;-72
2021/08/08 11:10:40;;;;;;;8.70;3.80;;;;;;;;;;5085659;28;20050;-67
2021/08/08 11:13:20;;;;;;;6.57;3.85;;;;;;;;;;5088084;28;20042;-71
2021/08/08 11:15:46;;;;;;;9.30;4.20;;;;;;;;;;5089931;28;20035;-71
2021/08/08 11:18:13;;;;;;;6.85;4.07;;;;;;;;;;5087262;28;20036;-70
2021/08/08 11:20:39;;;;;;;6.43;3.97;;;;;;;;;;5091452;28;20024;-67
2021/08/08 11:23:06;;;;;;;9.48;3.72;;;;;;;;;;5085669;28;20270;-73
2021/08/08 11:25:41;;;;;;;9.48;4.05;;;;;;;;;;5087434;28;20039;-68
2021/08/08 11:28:08;;;;;;;7.90;3.60;;;;;;;;;;5089909;28;20028;-70
2021/08/08 11:30:38;;;;;;;5.40;3.50;;;;;;;;;;5092009;28;20051;-70
2021/08/08 11:33:04;;;;;;;6.13;4.00;;;;;;;;;;5092202;28;20109;-71
2021/08/08 11:35:30;;;;;;;7.20;3.50;;;;;;;;;;5089732;28;20051;-64
2021/08/08 11:37:56;;;;;;;7.20;3.70;;;;;;;;;;5090277;28;20104;-71
2021/08/08 11:40:23;;;;;;;7.43;3.70;;;;;;;;;;5082512;28;20020;-68
2021/08/08 11:42:57;;;;;;;8.13;3.80;;;;;;;;;;5089592;28;20024;-66
2021/08/08 11:45:48;;;;;;;6.70;3.72;;;;;;;;;;5089177;28;20024;-70
2021/08/08 11:48:20;;;;;;;7.43;4.05;;;;;;;;;;5071929;28;20063;-67
2021/08/08 11:51:00;;;;;;;8.15;3.85;;;;;;;;;;5073992;28;20559;-67
2021/08/08 11:53:35;;;;;;;9.23;3.92;;;;;;;;;;5070606;28;20048;-68
2021/08/08 11:56:15;;;;;;;6.15;4.05;;;;;;;;;;5071832;28;20036;-70
2021/08/08 11:58:54;;;;;;;7.55;3.85;;;;;;;;;;5069579;28;20059;-70
2021/08/08 12:01:24;;;;;;;5.68;3.80;;;;;;;;;;5071114;28;20024;-75
2021/08/08 12:03:55;;;;;;;7.82;3.70;;;;;;;;;;5053004;28;20036;-71
2021/08/08 12:06:22;;;;;;;10.18;4.05;;;;;;;;;;5070273;28;20040;-67
2021/08/08 12:08:52;;;;;;;8.75;4.10;;;;;;;;;;5067056;28;20042;-68
2021/08/08 12:11:20;;;;;;;7.53;3.83;;;;;;;;;;5073266;28;20661;-67
2021/08/08 12:14:06;;;;;;;7.07;3.67;;;;;;;;;;5071943;28;20107;-69
2021/08/08 12:16:36;;;;;;;7.60;4.22;;;;;;;;;;5059440;28;20028;-70
2021/08/08 12:19:02;;;;;;;8.05;4.10;;;;;;;;;;5067918;28;20049;-70
2021/08/08 12:21:33;;;;;;;12.68;4.10;;;;;;;;;;5070138;28;20028;-65
2021/08/08 12:24:17;;;;;;;6.90;4.00;;;;;;;;;;5072463;28;20493;-65
2021/08/08 12:26:52;;;;;;;8.18;4.00;;;;;;;;;;5083538;28;20032;-65
2021/08/08 12:29:28;;;;;;;6.50;3.83;;;;;;;;;;5087833;28;20099;-68
2021/08/08 12:32:04;;;;;;;13.70;4.07;;;;;;;;;;5083728;28;20035;-64
2021/08/08 12:34:30;;;;;;;7.32;4.13;;;;;;;;;;5085237;28;20141;-69
2021/08/08 12:37:04;;;;;;;6.85;4.25;;;;;;;;;;5079472;28;20025;-66
2021/08/08 12:39:30;;;;;;;7.38;3.80;;;;;;;;;;5085990;28;20671;-64
2021/08/08 12:41:56;;;;;;;7.30;3.97;;;;;;;;;;5076444;28;20111;-68
2021/08/08 12:44:33;;;;;;;6.47;3.97;;;;;;;;;;5090585;28;20032;-70
2021/08/08 12:47:03;;;;;;;6.57;4.20;;;;;;;;;;5082679;28;20048;-71
2021/08/08 12:49:36;;;;;;;9.25;3.95;;;;;;;;;;5091437;28;20183;-66
2021/08/08 12:52:08;;;;;;;7.93;4.72;;;;;;;;;;5084261;28;20039;-73
2021/08/08 12:54:34;;;;;;;5.82;3.70;;;;;;;;;;5105419;28;20040;-69
2021/08/08 12:57:00;;;;;;;6.25;3.92;;;;;;;;;;5085971;28;20036;-70
2021/08/08 12:59:27;;;;;;;7.43;3.70;;;;;;;;;;5084017;28;20489;-64
2021/08/08 13:01:57;;;;;;;6.80;3.83;;;;;;;;;;5090449;28;20524;-64
2021/08/08 13:04:24;;;;;;;7.35;4.03;;;;;;;;;;5083308;28;20090;-65
2021/08/08 13:06:50;;;;;;;6.10;3.78;;;;;;;;;;5086358;28;20077;-68
2021/08/08 13:09:16;;;;;;;6.00;3.58;;;;;;;;;;5089536;28;20035;-67
2021/08/08 13:11:42;;;;;;;5.07;3.42;;;;;;;;;;5079306;28;20031;-69
2021/08/08 13:14:09;;;;;;;8.00;3.80;;;;;;;;;;5088288;28;20038;-68
2021/08/08 13:16:35;;;;;;;4.93;3.40;;;;;;;;;;5083925;28;20388;-74
2021/08/08 13:19:01;;;;;;;7.40;3.60;;;;;;;;;;5089730;28;20160;-75
2021/08/08 13:22:17;;;;;;;6.45;3.30;;;;;;;;;;5082533;28;20107;-76
2021/08/08 13:24:42;;;;;;;8.10;3.50;;;;;;;;;;5082272;28;20052;-68
2021/08/08 13:27:08;;;;;;;5.22;3.50;;;;;;;;;;5088347;28;20020;-68
2021/08/08 13:29:34;;;;;;;6.15;3.10;;;;;;;;;;5084708;28;20058;-70
2021/08/08 13:32:01;;;;;;;5.53;3.30;;;;;;;;;;5082147;28;20032;-69
2021/08/08 13:34:27;;;;;;;6.63;2.80;;;;;;;;;;5081092;28;20141;-70
2021/08/08 13:36:59;;;;;;;5.93;3.13;;;;;;;;;;5091334;28;20049;-69
2021/08/08 13:39:26;;;;;;;7.03;3.30;;;;;;;;;;5089825;28;20374;-69
2021/08/08 13:41:52;;;;;;;7.18;4.50;;;;;;;;;;5087847;28;20378;-68
2021/08/08 13:44:18;;;;;;;7.22;3.97;;;;;;;;;;5081221;28;20427;-68
2021/08/08 13:46:44;;;;;;;5.78;3.60;;;;;;;;;;5085909;28;20044;-70
2021/08/08 13:49:10;;;;;;;16.10;4.85;;;;;;;;;;5090006;28;20036;-68
2021/08/08 13:51:40;;;;;;;8.43;3.97;;;;;;;;;;5085913;28;20027;-68
2021/08/08 13:54:08;;;;;;;5.55;3.47;;;;;;;;;;5090010;28;20039;-71
2021/08/08 13:56:35;;;;;;;6.47;3.50;;;;;;;;;;5082378;28;20141;-74
2021/08/08 13:59:01;;;;;;;8.18;3.80;;;;;;;;;;5088752;28;20571;-76
2021/08/08 14:01:27;;;;;;;8.23;4.18;;;;;;;;;;5089108;28;20032;-72
2021/08/08 14:03:56;;;;;;;7.60;3.80;;;;;;;;;;5081972;28;20393;-75
2021/08/08 14:06:25;;;;;;;6.85;3.95;;;;;;;;;;5090962;28;20508;-70
2021/08/08 14:08:51;;;;;;;8.18;4.22;;;;;;;;;;5082886;28;20032;-71
2021/08/08 14:11:17;;;;;;;8.23;4.47;;;;;;;;;;5086289;28;20380;-69
2021/08/08 14:13:43;;;;;;;12.10;4.45;;;;;;;;;;5084789;28;20077;-70
2021/08/08 14:16:09;;;;;;;7.00;4.47;;;;;;;;;;5087105;28;20388;-69
2021/08/08 14:18:36;;;;;;;9.73;4.25;;;;;;;;;;5083409;28;20032;-71
2021/08/08 14:21:02;;;;;;;11.13;4.45;;;;;;;;;;5078359;28;20024;-69
2021/08/08 14:23:28;;;;;;;10.35;5.15;;;;;;;;;;5086349;28;20119;-71
2021/08/08 14:25:55;;;;;;;6.45;4.15;;;;;;;;;;5085180;28;20024;-70
2021/08/08 14:28:24;;;;;;;7.65;3.65;;;;;;;;;;5089374;28;20023;-71
2021/08/08 14:30:50;;;;;;;9.68;4.13;;;;;;;;;;5085351;28;20020;-69
2021/08/08 14:33:17;;;;;;;7.15;4.43;;;;;;;;;;5088412;28;20108;-68
2021/08/08 14:35:43;;;;;;;10.95;4.15;;;;;;;;;;5090359;28;20031;-69
2021/08/08 14:38:09;;;;;;;5.68;3.60;;;;;;;;;;5086512;28;20051;-73
2021/08/08 14:40:35;;;;;;;9.75;3.50;;;;;;;;;;5083468;28;20033;-72
2021/08/08 14:43:01;;;;;;;6.95;3.88;;;;;;;;;;5080828;28;20023;-70